< Typhoon 197018 1970 Season Typhoon 197020 >
Typhoon 197019 (JOAN)
General InformationTrack Information on Google Maps || Disaster Info.ResourceGoogle EarthGE AnimationAtom FeedGeoJSON
Detalied Best Track (Time Zone = UTC)
Year Month Day Hour Lat. Long. Pressure (hPa) Wind (kt) Class Image Chart
1970 10 9 00 8.0 146.0 1004 0 2 -- Chart
1970 10 9 06 8.2 144.6 1002 0 2 -- Chart
1970 10 9 12 8.5 143.1 1002 0 2 -- Chart
1970 10 9 18 9.0 141.7 1000 0 2 -- Chart
1970 10 10 00 9.5 140.4 998 0 9 -- Chart
1970 10 10 06 10.3 138.8 995 0 9 -- Chart
1970 10 10 12 10.8 137.1 990 0 9 -- Chart
1970 10 10 18 10.9 135.1 990 0 9 -- Chart
1970 10 11 00 11.1 133.2 985 0 9 -- Chart
1970 10 11 06 11.3 131.6 975 0 9 -- Chart
1970 10 11 12 11.5 130.4 975 0 9 -- Chart
1970 10 11 18 11.5 129.2 965 0 9 -- Chart
1970 10 12 00 11.4 128.4 950 0 9 -- Chart
1970 10 12 06 11.6 127.1 935 0 9 -- Chart
1970 10 12 12 12.2 126.6 920 0 9 -- Chart
1970 10 12 18 12.6 125.7 905 0 9 -- Chart
1970 10 13 00 13.0 124.6 910 0 9 -- Chart
1970 10 13 06 13.5 123.4 925 0 9 -- Chart
1970 10 13 12 13.7 122.5 945 0 9 -- Chart
1970 10 13 18 14.1 121.6 960 0 9 -- Chart
1970 10 14 00 14.6 120.4 970 0 9 -- Chart
1970 10 14 06 14.8 119.0 970 0 9 -- Chart
1970 10 14 12 14.2 117.8 970 0 9 -- Chart
1970 10 14 18 14.6 116.9 965 0 9 -- Chart
1970 10 15 00 14.7 115.8 965 0 9 -- Chart
1970 10 15 06 14.7 115.0 965 0 9 -- Chart
1970 10 15 12 15.2 114.5 960 0 9 -- Chart
1970 10 15 18 15.6 113.9 955 0 9 -- Chart
1970 10 16 00 16.5 113.0 950 0 9 -- Chart
1970 10 16 06 17.5 112.3 955 0 9 -- Chart
1970 10 16 12 18.4 111.9 960 0 9 -- Chart
1970 10 16 18 19.1 111.6 965 0 9 -- Chart
1970 10 17 00 19.5 111.4 965 0 9 -- Chart
1970 10 17 06 20.0 111.0 970 0 9 -- Chart
1970 10 17 12 20.6 110.8 985 0 9 -- Chart
1970 10 17 18 21.0 110.5 996 0 9 -- Chart
1970 10 18 00 21.6 110.3 1000 0 2 -- Chart
1970 10 18 06 22.0 110.5 1002 0 2 -- Chart
1970 10 18 12 22.1 110.7 1008 0 2 -- Chart
Japan Meteorological Agency Best Track Data | Correction Date : 1989-06-01
< Typhoon 197018 1970 Season Typhoon 197020 >

Help